createdAt,value
2023-04-27T00:01:12.393Z,88.20
2023-04-27T00:06:17.774Z,88.87
2023-04-27T00:11:22.343Z,87.46
2023-04-27T00:16:26.388Z,92.15
2023-04-27T00:21:32.134Z,98.76
2023-04-27T00:26:36.131Z,94.78
2023-04-27T00:31:40.012Z,94.24
2023-04-27T00:36:45.581Z,97.11
2023-04-27T00:41:49.888Z,100.00
2023-04-27T00:46:54.844Z,98.83
2023-04-27T00:52:01.445Z,97.96
2023-04-27T00:57:05.360Z,99.47
2023-04-27T01:02:10.368Z,100.00
2023-04-27T01:07:17.102Z,98.38
2023-04-27T01:12:21.124Z,99.19
2023-04-27T01:17:26.264Z,100.00
2023-04-27T01:22:31.882Z,99.50
2023-04-27T01:27:37.205Z,100.00
2023-04-27T01:32:41.236Z,100.00
2023-04-27T01:37:45.419Z,100.00
2023-04-27T01:42:50.781Z,100.00
2023-04-27T01:47:55.272Z,100.00
2023-04-27T01:52:59.245Z,100.00
2023-04-27T01:58:04.661Z,100.00
2023-04-27T02:03:09.821Z,100.00
2023-04-27T02:08:13.946Z,100.00
2023-04-27T02:13:19.424Z,100.00
2023-04-27T02:18:24.454Z,100.00
2023-04-27T02:23:28.382Z,100.00
2023-04-27T02:28:34.372Z,100.00
2023-04-27T02:33:38.828Z,100.00
2023-04-27T02:38:42.737Z,100.00
2023-04-27T02:43:48.728Z,100.00
2023-04-27T02:48:52.782Z,100.00
2023-04-27T02:53:56.646Z,100.00
2023-04-27T02:59:02.186Z,100.00
2023-04-27T03:04:07.666Z,100.00
2023-04-27T03:09:12.961Z,100.00
2023-04-27T03:14:18.460Z,100.00
2023-04-27T03:19:22.425Z,100.00
2023-04-27T03:24:27.794Z,100.00
2023-04-27T03:29:33.199Z,100.00
2023-04-27T03:34:37.323Z,100.00
2023-04-27T03:39:41.892Z,100.00
2023-04-27T03:44:48.315Z,100.00
2023-04-27T03:49:52.228Z,100.00
2023-04-27T03:54:56.375Z,100.00
2023-04-27T04:00:01.778Z,100.00
2023-04-27T04:05:06.138Z,100.00
2023-04-27T04:10:12.015Z,100.00
2023-04-27T04:15:17.429Z,100.00
2023-04-27T04:20:21.668Z,100.00
2023-04-27T04:25:26.222Z,100.00
2023-04-27T04:30:32.601Z,100.00
2023-04-27T04:35:42.048Z,100.00
2023-04-27T04:40:50.727Z,100.00
2023-04-27T04:46:00.070Z,100.00
2023-04-27T04:51:08.508Z,100.00
2023-04-27T04:56:17.521Z,100.00
2023-04-27T05:01:25.469Z,100.00
2023-04-27T05:06:32.892Z,100.00
2023-04-27T05:11:40.125Z,100.00
2023-04-27T05:16:48.580Z,100.00
2023-04-27T05:21:52.709Z,100.00
2023-04-27T05:26:56.800Z,100.00
2023-04-27T05:32:02.159Z,100.00
2023-04-27T05:37:06.112Z,100.00
2023-04-27T05:42:09.985Z,99.93
2023-04-27T05:47:15.230Z,100.00
2023-04-27T05:52:19.232Z,100.00
2023-04-27T05:57:23.334Z,98.67
2023-04-27T06:02:28.972Z,92.47
2023-04-27T06:07:33.859Z,91.92
2023-04-27T06:12:38.194Z,85.82
2023-04-27T06:17:44.562Z,89.69
2023-04-27T06:22:48.582Z,86.28
2023-04-27T06:27:52.598Z,83.96
2023-04-27T06:32:57.987Z,85.15
2023-04-27T06:38:02.044Z,91.64
2023-04-27T06:43:06.242Z,90.69
2023-04-27T06:48:12.066Z,90.95
2023-04-27T06:53:17.406Z,79.28
2023-04-27T06:58:22.244Z,71.93
2023-04-27T07:03:27.907Z,73.14
2023-04-27T07:08:31.864Z,82.24
2023-04-27T07:13:35.935Z,82.39
2023-04-27T07:18:43.312Z,79.10
2023-04-27T07:23:47.607Z,69.99
2023-04-27T07:28:52.038Z,64.58
2023-04-27T07:33:58.157Z,57.58
2023-04-27T07:39:02.400Z,73.10
2023-04-27T07:44:06.549Z,83.58
2023-04-27T07:49:13.962Z,94.77
2023-04-27T07:54:18.116Z,90.73
2023-04-27T07:59:22.282Z,95.37
2023-04-27T08:04:27.948Z,97.43
2023-04-27T08:09:32.473Z,100.00
2023-04-27T08:14:37.718Z,98.47
2023-04-27T08:19:43.332Z,98.52
2023-04-27T08:24:47.290Z,92.53
2023-04-27T08:29:51.674Z,95.01
2023-04-27T08:34:59.540Z,78.85
2023-04-27T08:40:06.955Z,73.33
2023-04-27T08:45:11.502Z,72.37
2023-04-27T08:50:17.008Z,64.71
2023-04-27T08:55:21.310Z,66.39
2023-04-27T09:00:28.891Z,69.81
2023-04-27T09:05:34.456Z,65.66
2023-04-27T09:10:46.122Z,62.98
2023-04-27T09:15:52.702Z,66.76
2023-04-27T09:20:58.041Z,59.60
2023-04-27T09:26:03.798Z,52.55
2023-04-27T09:31:09.517Z,55.56
2023-04-27T09:36:15.567Z,59.67
2023-04-27T09:41:19.718Z,58.86
2023-04-27T09:46:26.022Z,62.26
2023-04-27T09:51:31.987Z,61.63
2023-04-27T09:56:54.869Z,60.10
2023-04-27T10:02:09.978Z,54.40
2023-04-27T10:07:23.709Z,57.91
2023-04-27T10:12:29.759Z,54.25
2023-04-27T10:17:35.471Z,54.02
2023-04-27T10:22:41.750Z,59.02
2023-04-27T10:27:49.770Z,57.44
2023-04-27T10:32:55.773Z,55.46
2023-04-27T10:38:08.616Z,53.93
2023-04-27T10:43:14.392Z,51.27
2023-04-27T10:48:18.637Z,52.87
2023-04-27T10:53:24.005Z,51.42
2023-04-27T10:58:37.647Z,51.12
2023-04-27T11:03:49.071Z,54.30
2023-04-27T11:08:54.931Z,49.37
2023-04-27T11:13:59.571Z,48.16
2023-04-27T11:19:06.902Z,49.98
2023-04-27T11:24:15.183Z,51.93
2023-04-27T11:29:19.701Z,51.39
2023-04-27T11:34:26.529Z,57.17
2023-04-27T11:39:35.338Z,58.15
2023-04-27T11:44:40.589Z,55.17
2023-04-27T11:49:48.354Z,52.39
2023-04-27T11:54:56.609Z,47.78
2023-04-27T12:00:11.302Z,50.29
2023-04-27T12:05:19.936Z,50.03
2023-04-27T12:10:26.085Z,52.39
2023-04-27T12:15:29.777Z,54.73
2023-04-27T12:20:33.862Z,54.77
2023-04-27T12:25:41.182Z,52.91
2023-04-27T12:30:45.669Z,51.84
2023-04-27T12:35:49.866Z,48.95
2023-04-27T12:40:55.286Z,48.77
2023-04-27T12:45:59.315Z,47.47
2023-04-27T12:51:03.573Z,47.86
2023-04-27T12:56:09.312Z,54.10
2023-04-27T13:01:15.633Z,54.28
2023-04-27T13:06:20.042Z,54.18
2023-04-27T13:11:25.627Z,56.63
2023-04-27T13:16:29.719Z,53.24
2023-04-27T13:21:34.345Z,54.54
2023-04-27T13:26:39.682Z,54.42
2023-04-27T13:31:43.774Z,56.27
2023-04-27T13:36:49.441Z,55.45
2023-04-27T13:41:55.090Z,55.34
2023-04-27T13:46:59.020Z,53.07
2023-04-27T13:52:03.138Z,52.60
2023-04-27T13:57:08.457Z,50.81
2023-04-27T14:02:12.531Z,50.82
2023-04-27T14:07:16.867Z,49.90
2023-04-27T14:12:22.314Z,48.92
2023-04-27T14:17:26.858Z,50.56
2023-04-27T14:22:31.560Z,51.27
2023-04-27T14:27:37.165Z,44.16
2023-04-27T14:32:41.859Z,43.76
2023-04-27T14:37:45.750Z,48.91
2023-04-27T14:42:51.140Z,50.90
2023-04-27T14:47:55.388Z,50.53
2023-04-27T14:52:59.453Z,52.85
2023-04-27T14:58:05.036Z,54.06
2023-04-27T15:03:09.418Z,58.54
2023-04-27T15:08:13.541Z,59.25
2023-04-27T15:13:18.824Z,56.18
2023-04-27T15:18:22.933Z,57.07
2023-04-27T15:23:28.363Z,52.39
2023-04-27T15:28:34.726Z,54.54
2023-04-27T15:33:38.679Z,55.33
2023-04-27T15:38:42.673Z,56.68
2023-04-27T15:43:48.126Z,54.73
2023-04-27T15:48:52.269Z,54.45
2023-04-27T15:53:56.215Z,48.84
2023-04-27T15:59:01.567Z,51.65
2023-04-27T16:04:06.399Z,57.50
2023-04-27T16:09:11.729Z,57.24
2023-04-27T16:14:17.145Z,60.42
2023-04-27T16:19:21.298Z,63.63
2023-04-27T16:24:26.934Z,64.13
2023-04-27T16:29:32.344Z,65.05
2023-04-27T16:34:37.298Z,67.09
2023-04-27T16:39:41.414Z,67.72
2023-04-27T16:44:47.087Z,65.90
2023-04-27T16:49:51.357Z,66.47
2023-04-27T16:54:55.544Z,64.52
2023-04-27T17:00:02.095Z,67.98
2023-04-27T17:05:07.103Z,69.79
2023-04-27T17:10:11.493Z,72.03
2023-04-27T17:15:18.254Z,71.44
2023-04-27T17:20:22.418Z,70.90
2023-04-27T17:25:26.848Z,73.22
2023-04-27T17:30:32.288Z,73.70
2023-04-27T17:35:36.400Z,74.97
2023-04-27T17:40:40.442Z,74.80
2023-04-27T17:45:45.781Z,75.88
2023-04-27T17:50:49.884Z,77.55
2023-04-27T17:55:54.108Z,76.44
2023-04-27T18:00:59.552Z,75.17
2023-04-27T18:06:12.611Z,77.90
2023-04-27T18:11:16.825Z,72.71
2023-04-27T18:16:22.262Z,75.62
2023-04-27T18:21:27.926Z,68.18
2023-04-27T18:26:32.120Z,75.63
2023-04-27T18:31:38.127Z,82.57
2023-04-27T18:36:42.320Z,79.48
2023-04-27T18:41:46.298Z,77.74
2023-04-27T18:46:51.923Z,90.80
2023-04-27T18:51:55.870Z,88.69
2023-04-27T18:57:00.230Z,91.46
2023-04-27T19:02:05.600Z,95.54
2023-04-27T19:07:09.688Z,99.77
2023-04-27T19:12:13.733Z,100.00
2023-04-27T19:17:19.409Z,100.00
2023-04-27T19:22:23.475Z,100.00
2023-04-27T19:27:27.568Z,100.00
2023-04-27T19:32:34.383Z,100.00
2023-04-27T19:37:38.586Z,100.00
2023-04-27T19:42:42.599Z,100.00
2023-04-27T19:47:48.757Z,100.00
2023-04-27T19:52:52.770Z,100.00
2023-04-27T19:57:56.814Z,100.00
2023-04-27T20:03:02.370Z,100.00
2023-04-27T20:08:06.547Z,100.00
2023-04-27T20:13:10.935Z,100.00
2023-04-27T20:18:16.350Z,100.00
2023-04-27T20:23:20.237Z,100.00
2023-04-27T20:28:24.481Z,100.00
2023-04-27T20:33:29.876Z,100.00
2023-04-27T20:38:33.814Z,100.00
2023-04-27T20:43:39.876Z,100.00
2023-04-27T20:48:46.311Z,100.00
2023-04-27T20:53:50.290Z,100.00
2023-04-27T20:58:54.388Z,100.00
2023-04-27T21:04:00.264Z,100.00
2023-04-27T21:09:04.232Z,100.00
2023-04-27T21:14:08.357Z,100.00
2023-04-27T21:19:16.262Z,100.00
2023-04-27T21:24:20.424Z,100.00
2023-04-27T21:29:24.420Z,100.00
2023-04-27T21:34:29.722Z,100.00
2023-04-27T21:39:33.638Z,100.00
2023-04-27T21:44:38.264Z,100.00
2023-04-27T21:49:43.589Z,100.00
2023-04-27T21:54:47.453Z,100.00
2023-04-27T21:59:51.383Z,100.00
2023-04-27T22:04:56.822Z,100.00
2023-04-27T22:10:00.816Z,100.00
2023-04-27T22:15:05.234Z,100.00
2023-04-27T22:20:12.720Z,100.00
2023-04-27T22:25:17.233Z,100.00
2023-04-27T22:30:21.126Z,100.00
2023-04-27T22:35:27.805Z,100.00
2023-04-27T22:40:32.072Z,100.00
2023-04-27T22:45:38.147Z,100.00
2023-04-27T22:50:44.251Z,100.00
2023-04-27T22:55:48.148Z,100.00
2023-04-27T23:00:52.084Z,100.00
2023-04-27T23:05:57.779Z,100.00
2023-04-27T23:11:02.828Z,100.00
2023-04-27T23:16:07.930Z,100.00
2023-04-27T23:21:13.600Z,100.00
2023-04-27T23:26:17.984Z,100.00
2023-04-27T23:31:23.651Z,100.00
2023-04-27T23:36:29.501Z,100.00
2023-04-27T23:41:33.350Z,100.00
2023-04-27T23:46:37.585Z,100.00
2023-04-27T23:51:42.843Z,100.00
2023-04-27T23:56:47.296Z,100.00
